Latest Weather Observations for Kingaroy

IDQ60801

Issued at 4:05 pm EST Saturday 29 November 2014 (issued every 30 minutes, with the page automatically refreshed every 10 minutes)

About weather observations | Map of weather stations | Latest weather observations for QLD | Other Formats
Station Details ID: 040922 Name: KINGAROY AIRPORT Lat: -26.57 Lon: 151.84 Height: 433.67 m
Data from the previous 72 hours. | See also: Recent months at Kingaroy
Date/Time
EST
Temp
°C
App
Temp
°C
Dew
Point
Rel
Hum
%
Delta-T
°C
Wind Press
QNH
hPa
Press
MSL
hPa
Rain
since 9 am
mm
Dir
 
Spd
km/h
Gust
km/h
Spd
kts
Gust
kts
29/04:00pm 27.6 24.9 10.3 34 9.9 E 15 22 8 12 1015.2 1013.2 0.0
29/03:30pm 27.9 24.4 10.1 33 10.2 ESE 19 32 10 17 1015.4 1013.4 0.0
29/03:00pm 28.1 26.1 11.6 36 9.7 SE 13 22 7 12 1015.7 1013.7 0.0
29/02:30pm 28.1 25.5 10.8 34 10.0 E 15 28 8 15 1016.2 1014.3 0.0
29/02:00pm 27.5 25.4 11.1 36 9.5 ESE 13 20 7 11 1016.6 1014.6 0.0
29/01:30pm 26.9 24.5 10.2 35 9.5 SE 13 22 7 12 1016.9 1014.9 0.0
29/01:00pm 27.0 25.0 12.6 41 8.5 SSE 15 20 8 11 1017.2 1015.2 0.0
29/12:30pm 26.1 23.8 11.8 41 8.3 SSE 15 28 8 15 1017.6 1015.6 0.0
29/12:00pm 25.9 24.2 12.4 43 7.9 E 13 24 7 13 1018.0 1016.1 0.0
29/11:30am 25.8 24.4 13.3 46 7.5 E 13 24 7 13 1018.5 1016.6 0.0
29/11:00am 24.3 23.7 13.5 51 6.4 E 9 20 5 11 1019.0 1017.0 0.0
29/10:30am 23.9 22.3 14.0 54 5.9 E 15 22 8 12 1019.4 1017.4 0.0
29/10:00am 22.9 20.9 13.9 57 5.3 E 17 26 9 14 1019.8 1017.8 0.0
29/09:30am 21.2 20.1 14.4 65 4.1 SE 13 20 7 11 1020.1 1018.2 0.0
29/09:00am 21.3 19.6 14.7 66 3.9 E 17 26 9 14 1020.3 1018.4 0.0
29/08:30am 19.8 19.2 15.7 77 2.5 E 13 22 7 12 1020.4 1018.5 0.0
29/08:00am 19.4 19.1 15.5 78 2.3 ESE 11 17 6 9 1020.3 1018.4 0.0
29/07:30am 20.4 19.3 16.4 78 2.5 E 17 22 9 12 1020.2 1018.3 0.0
29/07:00am 19.0 18.6 15.1 78 2.3 ESE 11 17 6 9 1020.1 1018.2 0.0
29/06:30am 18.8 18.5 15.5 81 2.0 SE 11 15 6 8 1019.6 1017.6 0.0
29/06:00am 18.2 18.0 15.6 85 1.6 SE 11 15 6 8 1019.2 1017.2 0.0
29/05:30am 17.3 17.0 15.5 89 1.1 SE 11 15 6 8 1019.0 1017.0 0.0
29/05:00am 16.8 17.2 15.2 90 0.9 SE 7 13 4 7 1018.5 1016.6 0.0
29/04:30am 16.9 17.2 15.1 89 1.1 SE 7 11 4 6 1018.3 1016.4 0.0
29/04:00am 17.1 17.1 15.3 89 1.1 SE 9 15 5 8 1018.3 1016.4 0.0
29/03:30am 17.3 17.4 15.5 89 1.1 SE 9 13 5 7 1018.3 1016.4 0.0
29/03:00am 17.2 17.8 15.4 89 1.1 SE 6 9 3 5 1018.2 1016.3 0.0
29/02:30am 17.3 17.7 15.3 88 1.2 SE 7 9 4 5 1018.2 1016.3 0.0
29/02:00am 17.7 17.6 15.0 84 1.6 ESE 9 13 5 7 1018.8 1016.8 0.0
29/01:30am 17.7 17.2 15.0 84 1.6 E 11 17 6 9 1018.4 1016.5 0.0
29/01:00am 18.0 17.2 15.1 83 1.7 ESE 13 20 7 11 1018.6 1016.7 0.0
29/12:30am 18.2 17.2 15.5 84 1.6 E 15 22 8 12 1018.9 1016.9 0.0
29/12:00am 18.6 17.3 15.8 84 1.7 E 17 22 9 12 1019.5 1017.5 0.0
 
Date/Time
EST
Temp
°C
App
Temp
°C
Dew
Point
Rel
Hum
%
Delta-T
°C
Wind Press
QNH
hPa
Press
MSL
hPa
Rain
since 9 am
mm
Dir
 
Spd
km/h
Gust
km/h
Spd
kts
Gust
kts
28/11:30pm 18.8 18.0 16.0 84 1.7 E 15 20 8 11 1019.7 1017.7 0.0
28/11:00pm 18.9 18.8 16.1 84 1.7 E 11 15 6 8 1019.9 1017.9 0.0
28/10:30pm 19.0 18.1 15.9 82 1.9 E 15 22 8 12 1019.9 1017.9 0.0
28/10:00pm 18.6 18.4 15.8 84 1.7 ESE 11 17 6 9 1020.1 1018.2 0.0
28/09:30pm 18.8 17.5 15.9 83 1.8 E 17 26 9 14 1020.3 1018.4 0.0
28/09:00pm 19.1 18.4 16.3 84 1.7 ESE 15 22 8 12 1020.3 1018.4 0.0
28/08:30pm 19.2 18.1 16.4 84 1.7 E 17 24 9 13 1019.8 1017.8 0.0
28/08:00pm 19.7 17.6 16.3 81 2.1 E 22 32 12 17 1019.7 1017.7 0.0
28/07:30pm 20.0 18.3 16.2 79 2.3 E 20 28 11 15 1019.1 1017.1 0.0
28/07:00pm 20.2 19.0 16.2 78 2.4 E 17 26 9 14 1019.3 1017.3 0.0
28/06:30pm 21.4 19.4 16.4 73 3.1 E 22 32 12 17 1018.8 1016.8 0.0
28/06:00pm 22.1 20.3 15.9 68 3.8 ESE 20 28 11 15 1018.3 1016.4 0.0
28/05:30pm 22.6 21.0 15.9 66 4.1 E 19 26 10 14 1018.0 1016.1 0.0
28/05:00pm 22.9 21.3 16.0 65 4.2 E 19 30 10 16 1017.6 1015.6 0.0
28/04:30pm 23.6 20.2 15.9 62 4.7 E 28 39 15 21 1017.5 1015.5 0.0
28/04:00pm 25.3 22.8 16.2 57 5.7 E 24 39 13 21 1017.3 1015.3 0.0
28/03:30pm 25.0 22.0 16.7 60 5.2 E 28 35 15 19 1017.3 1015.3 0.0
28/03:00pm 25.4 23.4 16.5 58 5.6 E 22 33 12 18 1017.4 1015.4 0.0
28/02:30pm 26.5 24.9 16.4 53 6.3 E 20 30 11 16 1017.4 1015.4 0.0
28/02:00pm 25.5 23.0 16.1 56 5.8 E 24 32 13 17 1017.8 1015.8 0.0
28/01:30pm 25.5 23.6 15.8 55 6.0 E 20 28 11 15 1018.1 1016.2 0.0
28/01:00pm 25.6 23.2 17.3 60 5.3 E 26 35 14 19 1018.3 1016.4 0.0
28/12:30pm 24.3 23.1 18.5 70 3.7 ESE 22 35 12 19 1018.9 1016.9 0.0
28/12:00pm 23.4 22.4 17.6 70 3.7 ESE 19 33 10 18 1019.3 1017.3 0.0
28/11:30am 22.2 21.3 16.9 72 3.3 SE 17 22 9 12 1019.7 1017.7 0.0
28/11:00am 22.3 21.6 17.4 74 3.1 ESE 17 28 9 15 1019.9 1017.9 0.0
28/10:30am 22.4 21.9 17.8 75 2.9 ESE 17 24 9 13 1019.8 1017.8 0.0
28/10:00am 22.1 21.3 17.0 73 3.2 ESE 17 26 9 14 1019.8 1017.8 0.0
28/09:30am 22.0 20.9 16.3 70 3.5 ESE 17 26 9 14 1019.7 1017.7 0.0
28/09:00am 21.9 20.0 16.6 72 3.3 E 22 30 12 16 1019.7 1017.7 11.2
28/08:30am 20.9 19.3 16.5 76 2.7 ESE 20 28 11 15 1019.8 1017.8 11.2
28/08:00am 20.5 20.5 17.3 82 2.0 SE 13 20 7 11 1019.8 1017.8 11.2
28/07:30am 20.1 19.3 17.1 83 1.9 SE 17 32 9 17 1019.8 1017.8 11.2
28/07:00am 20.0 19.3 17.4 85 1.6 SE 17 24 9 13 1019.5 1017.5 11.2
28/06:30am 19.6 19.4 17.6 88 1.2 SE 15 22 8 12 1019.4 1017.4 11.2
28/06:00am 19.7 20.0 18.0 90 1.1 SE 13 19 7 10 1019.0 1017.0 11.2
28/05:30am 19.4 19.2 17.5 89 1.2 ESE 15 26 8 14 1018.4 1016.5 11.2
28/05:00am 19.5 19.0 17.8 90 1.1 ESE 17 22 9 12 1018.2 1016.3 11.2
28/04:30am 19.5 19.8 18.0 91 0.9 ESE 13 20 7 11 1017.9 1015.9 11.2
28/04:00am 19.5 19.9 18.2 92 0.8 ESE 13 17 7 9 1017.5 1015.5 11.2
28/03:30am 19.5 19.9 18.2 92 0.8 ESE 13 19 7 10 1017.3 1015.3 11.2
28/03:00am 19.4 19.8 18.1 92 0.8 ESE 13 15 7 8 1017.1 1015.1 11.2
28/02:30am 19.2 19.9 17.9 92 0.8 ESE 11 17 6 9 1017.3 1015.3 11.2
28/02:00am 19.1 19.5 18.1 94 0.6 ESE 13 19 7 10 1017.4 1015.4 11.2
28/01:30am 19.1 20.2 18.1 94 0.6 ESE 9 15 5 8 1017.3 1015.3 11.0
28/01:00am 19.2 19.6 18.2 94 0.6 ESE 13 20 7 11 1017.6 1015.6 11.0
28/12:30am 18.8 19.1 17.8 94 0.6 E 13 17 7 9 1017.7 1015.7 11.0
28/12:00am 19.0 20.1 18.0 94 0.6 ESE 9 13 5 7 1018.2 1016.3 11.0
 
Date/Time
EST
Temp
°C
App
Temp
°C
Dew
Point
Rel
Hum
%
Delta-T
°C
Wind Press
QNH
hPa
Press
MSL
hPa
Rain
since 9 am
mm
Dir
 
Spd
km/h
Gust
km/h
Spd
kts
Gust
kts
27/11:30pm 18.5 19.1 17.7 95 0.5 SSE 11 17 6 9 1018.4 1016.5 11.0
27/11:00pm 18.5 19.8 17.5 94 0.6 SE 7 9 4 5 1018.3 1016.4 11.0
27/10:30pm 18.4 19.2 17.4 94 0.6 SW 9 9 5 5 1018.3 1016.4 11.0
27/10:00pm 18.4 18.4 17.2 93 0.7 SSE 13 20 7 11 1018.4 1016.5 11.0
27/09:30pm 18.8 19.3 17.5 92 0.8 SE 11 17 6 9 1018.2 1016.3 11.0
27/09:00pm 18.5 19.3 17.2 92 0.8 SSE 9 19 5 10 1018.3 1016.4 11.0
27/08:30pm 18.3 18.7 17.3 94 0.6 W 11 17 6 9 1019.7 1017.7 10.4
27/08:00pm 18.0 17.2 17.0 94 0.6 SE 17 24 9 13 1018.4 1016.5 8.6
27/07:30pm 18.4 15.1 17.1 92 0.8 ESE 30 50 16 27 1017.6 1015.6 3.8
27/07:15pm 21.9 18.4 15.5 67 3.9 SE 28 57 15 31 1016.9 1014.9 0.0
27/07:00pm 25.3 24.7 16.7 59 5.4 ENE 15 30 8 16 1015.0 1013.0 0.0
27/06:30pm 26.0 24.7 15.7 53 6.4 ENE 17 28 9 15 1015.1 1013.1 0.0
27/06:00pm 27.1 26.6 15.8 50 7.0 ENE 13 26 7 14 1014.8 1012.8 0.0
27/05:30pm 28.9 27.6 14.7 42 8.8 N 15 20 8 11 1014.1 1012.1 0.0
27/05:00pm 29.6 28.0 15.0 41 9.1 NNW 17 24 9 13 1013.7 1011.7 0.0
27/04:30pm 30.6 28.7 13.0 34 10.7 E 15 20 8 11 1013.3 1011.3 0.0
27/04:00pm 29.8 27.4 12.7 35 10.3 ESE 17 22 9 12 1013.3 1011.3 0.0
27/03:30pm 31.0 30.2 12.8 32 11.0 ESE 9 15 5 8 1013.3 1011.3 0.0
27/03:00pm 30.9 29.8 11.8 31 11.4 E 9 17 5 9 1013.5 1011.5 0.0
27/02:30pm 31.5 31.4 13.3 33 11.1 NE 6 11 3 6 1014.0 1012.0 0.0
27/02:00pm 31.8 31.8 13.5 32 11.2 WNW 6 11 3 6 1014.3 1012.3 0.0
27/01:30pm 31.5 30.8 14.2 35 10.7 NNW 11 19 6 10 1014.7 1012.7 0.0
27/01:00pm 31.4 30.5 13.6 33 10.9 ENE 11 17 6 9 1015.2 1013.2 0.0
27/12:30pm 31.1 31.1 15.1 38 10.0 WNW 9 20 5 11 1015.7 1013.7 0.0
27/12:00pm 29.6 29.1 13.8 38 9.6 N 9 17 5 9 1016.1 1014.2 0.0
27/11:30am 29.1 29.0 14.9 42 8.8 NNE 9 20 5 11 1016.7 1014.7 0.0
27/11:00am 27.7 27.4 14.3 43 8.2 NNE 9 17 5 9 1017.3 1015.3 0.0
27/10:30am 27.1 27.1 15.1 47 7.4 N 9 15 5 8 1017.6 1015.6 0.0
27/10:00am 27.0 27.4 16.3 52 6.7 WNW 9 15 5 8 1017.9 1015.9 0.0
27/09:30am 26.0 26.6 15.4 52 6.5 ENE 6 15 3 8 1018.2 1016.3 0.0
27/09:00am 24.8 25.1 15.1 54 5.9 N 7 13 4 7 1018.2 1016.3 0.0
27/08:30am 25.1 25.3 16.8 60 5.2 N 11 19 6 10 1018.5 1016.6 0.0
27/08:00am 22.8 21.8 15.6 64 4.4 NNW 15 19 8 10 1018.8 1016.8 0.0
27/07:30am 22.8 23.2 17.3 71 3.5 N 11 17 6 9 1018.8 1016.8 0.0
27/07:00am 21.8 22.6 17.4 76 2.8 N 9 13 5 7 1018.5 1016.6 0.0
27/06:30am 20.7 22.5 17.5 82 2.0 ENE 4 7 2 4 1018.5 1016.6 0.0
27/06:00am 19.2 21.8 17.5 90 1.1 CALM 0 0 0 0 1018.2 1016.3 0.0
27/05:30am 17.6 19.1 15.8 89 1.1 ESE 2 6 1 3 1017.6 1015.6 0.0
27/05:00am 17.3 17.3 15.3 88 1.2 E 9 11 5 6 1017.6 1015.6 0.0
27/04:30am 18.1 19.4 16.1 88 1.2 E 4 7 2 4 1017.5 1015.5 0.0
27/04:00am 18.4 20.4 16.0 86 1.5 CALM 0 7 0 4 1017.2 1015.2 0.0
27/03:30am 19.0 20.6 16.8 87 1.4 NNE 4 9 2 5 1016.8 1014.8 0.0
27/03:00am 19.2 19.9 17.0 87 1.4 NNE 9 11 5 6 1016.8 1014.8 0.0
27/02:30am 19.6 20.0 17.2 86 1.5 N 11 15 6 8 1016.8 1014.8 0.0
27/02:00am 19.8 20.9 17.0 84 1.7 N 7 11 4 6 1017.0 1015.0 0.0
27/01:30am 20.0 20.6 16.8 82 2.0 N 9 13 5 7 1016.9 1014.9 0.0
27/01:00am 20.2 21.4 16.8 81 2.1 NNE 6 9 3 5 1017.0 1015.0 0.0
27/12:30am 20.5 21.7 16.9 80 2.2 N 6 7 3 4 1017.5 1015.5 0.0
27/12:00am 20.5 21.3 16.3 77 2.6 N 7 11 4 6 1017.8 1015.8 0.0
 
Date/Time
EST
Temp
°C
App
Temp
°C
Dew
Point
Rel
Hum
%
Delta-T
°C
Wind Press
QNH
hPa
Press
MSL
hPa
Rain
since 9 am
mm
Dir
 
Spd
km/h
Gust
km/h
Spd
kts
Gust
kts
26/11:30pm 21.0 21.7 16.0 73 3.1 NE 7 11 4 6 1017.9 1015.9 0.0
26/11:00pm 21.2 21.6 15.3 69 3.6 ENE 7 9 4 5 1018.3 1016.4 0.0
26/10:30pm 21.7 21.7 15.1 66 4.0 ENE 9 13 5 7 1018.4 1016.5 0.0
26/10:00pm 22.2 22.3 15.5 66 4.1 ENE 9 15 5 8 1018.8 1016.8 0.0
26/09:30pm 22.5 21.7 17.2 72 3.3 E 17 20 9 11 1018.6 1016.7 0.0
26/09:00pm 22.9 22.4 16.9 69 3.7 E 15 20 8 11 1018.8 1016.8 0.0
26/08:30pm 23.0 22.8 15.8 64 4.4 E 11 20 6 11 1018.4 1016.5 0.0
26/08:00pm 23.3 21.9 14.6 58 5.2 SE 15 20 8 11 1018.3 1016.4 0.0
26/07:30pm 23.3 22.1 14.0 56 5.6 SSE 13 19 7 10 1018.1 1016.2 0.0
26/07:00pm 23.5 23.2 13.4 53 6.0 SE 7 9 4 5 1018.0 1016.1 0.0
26/06:30pm 23.5 19.7 13.7 54 5.8 S 26 41 14 22 1017.3 1015.3 0.0
26/06:00pm 23.8 19.3 13.9 54 5.9 S 30 39 16 21 1016.9 1014.9 0.0
26/05:30pm 24.3 19.0 14.1 53 6.1 S 35 46 19 25 1016.7 1014.7 0.0
26/05:00pm 25.5 21.5 15.2 53 6.3 S 30 41 16 22 1016.4 1014.4 0.0
26/04:30pm 28.2 25.8 14.4 42 8.5 S 20 32 11 17 1015.6 1013.6 0.0

Other Formats:

Comma delimited format used in spreadsheet applications
http://www.bom.gov.au/fwo/IDQ60801/IDQ60801.94549.axf

JavaScript Object Notation format (JSON) in row-major order
http://www.bom.gov.au/fwo/IDQ60801/IDQ60801.94549.json